EKVJ/STA METAR and TAF weather

Enter ICAO airport designator
Station Type Date Time Source
EKVJ METAR 2021/07/28 13:50 UTC NOAA

EKVJ 281350Z 21019KT 9999 SCT020 19/16 Q1006


Station Type Date Time Source
EKVJ Decoded METAR 2021/07/28 13:50 UTC NOAA

Stauning Lufthavn, Denmark (EKVJ) 56-00N 008-21E 5M
Jul 28, 2021 - 09:50 AM EDT / 2021.07.28 1350 UTC
Wind: from the SSW (210 degrees) at 22 MPH (19 KT):0
Visibility: greater than 7 mile(s):0
Sky conditions: partly cloudy
Temperature: 66 F (19 C)
Dew Point: 60 F (16 C)
Relative Humidity: 82%
Pressure (altimeter): 29.71 in. Hg (1006 hPa)
ob: EKVJ 281350Z 21019KT 9999 SCT020 19/16 Q1006
cycle: 14

Station Type Date Time Source
EKVJ TAF UTC NOAA

Error!

Example: see airport list